sensor_id;sensor_type;location;lat;lon;timestamp;pressure;altitude;pressure_sealevel;temperature;humidity
31717;BME280;18301;51.076;17.046;2023-02-03T00:04:23;100931.06;;;1.27;74.89
31717;BME280;18301;51.076;17.046;2023-02-03T00:09:25;100923.97;;;1.26;74.74
31717;BME280;18301;51.076;17.046;2023-02-03T00:14:26;100918.56;;;1.29;75.00
31717;BME280;18301;51.076;17.046;2023-02-03T00:19:28;100920.50;;;1.24;75.32
31717;BME280;18301;51.076;17.046;2023-02-03T00:24:29;100918.56;;;1.29;75.75
31717;BME280;18301;51.076;17.046;2023-02-03T00:29:31;100917.41;;;1.39;75.54
31717;BME280;18301;51.076;17.046;2023-02-03T00:34:32;100918.47;;;1.32;75.56
31717;BME280;18301;51.076;17.046;2023-02-03T00:39:37;100909.56;;;1.34;75.93
31717;BME280;18301;51.076;17.046;2023-02-03T00:44:38;100910.47;;;1.33;75.82
31717;BME280;18301;51.076;17.046;2023-02-03T00:49:39;100898.97;;;1.33;75.98
31717;BME280;18301;51.076;17.046;2023-02-03T00:54:41;100883.97;;;1.30;75.76
31717;BME280;18301;51.076;17.046;2023-02-03T00:59:42;100889.63;;;1.18;75.62
31717;BME280;18301;51.076;17.046;2023-02-03T01:04:44;100888.97;;;1.10;76.60
31717;BME280;18301;51.076;17.046;2023-02-03T01:09:45;100885.50;;;1.06;76.37
31717;BME280;18301;51.076;17.046;2023-02-03T01:14:47;100884.25;;;0.87;77.64
31717;BME280;18301;51.076;17.046;2023-02-03T01:19:49;100872.19;;;0.74;77.59
31717;BME280;18301;51.076;17.046;2023-02-03T01:24:51;100859.66;;;0.79;78.31
31717;BME280;18301;51.076;17.046;2023-02-03T01:29:53;100847.00;;;0.90;78.19
31717;BME280;18301;51.076;17.046;2023-02-03T01:34:54;100841.59;;;0.93;78.32
31717;BME280;18301;51.076;17.046;2023-02-03T01:39:56;100826.19;;;1.04;78.32
31717;BME280;18301;51.076;17.046;2023-02-03T01:44:58;100822.06;;;0.94;78.67
31717;BME280;18301;51.076;17.046;2023-02-03T01:50:13;100804.03;;;0.73;79.39
31717;BME280;18301;51.076;17.046;2023-02-03T01:55:19;100781.63;;;0.83;79.35
31717;BME280;18301;51.076;17.046;2023-02-03T02:00:21;100778.06;;;0.84;79.65
31717;BME280;18301;51.076;17.046;2023-02-03T02:05:29;100752.03;;;0.97;79.70
31717;BME280;18301;51.076;17.046;2023-02-03T02:10:32;100743.91;;;1.01;79.99
31717;BME280;18301;51.076;17.046;2023-02-03T02:15:48;100733.53;;;0.92;79.84
31717;BME280;18301;51.076;17.046;2023-02-03T02:21:15;100729.13;;;0.93;80.21
31717;BME280;18301;51.076;17.046;2023-02-03T02:26:38;100737.03;;;0.94;80.16
31717;BME280;18301;51.076;17.046;2023-02-03T02:47:32;100720.56;;;1.41;79.38
31717;BME280;18301;51.076;17.046;2023-02-03T02:52:36;100696.75;;;1.37;79.41
31717;BME280;18301;51.076;17.046;2023-02-03T02:57:40;100674.44;;;1.42;79.35
31717;BME280;18301;51.076;17.046;2023-02-03T03:02:42;100666.47;;;1.42;79.39
31717;BME280;18301;51.076;17.046;2023-02-03T03:07:47;100657.16;;;1.28;79.67
31717;BME280;18301;51.076;17.046;2023-02-03T03:12:53;100633.47;;;1.21;80.03
31717;BME280;18301;51.076;17.046;2023-02-03T03:18:24;100617.38;;;1.25;79.89
31717;BME280;18301;51.076;17.046;2023-02-03T03:23:32;100605.94;;;1.23;80.21
31717;BME280;18301;51.076;17.046;2023-02-03T03:28:47;100613.00;;;1.23;80.38
31717;BME280;18301;51.076;17.046;2023-02-03T03:33:49;100606.69;;;1.27;80.28
31717;BME280;18301;51.076;17.046;2023-02-03T03:44:05;100609.25;;;1.56;79.85
31717;BME280;18301;51.076;17.046;2023-02-03T03:49:11;100607.63;;;1.52;79.87
31717;BME280;18301;51.076;17.046;2023-02-03T03:54:17;100596.34;;;1.44;80.17
31717;BME280;18301;51.076;17.046;2023-02-03T03:59:21;100595.16;;;1.54;79.78
31717;BME280;18301;51.076;17.046;2023-02-03T04:04:24;100591.97;;;1.43;79.56
31717;BME280;18301;51.076;17.046;2023-02-03T04:09:27;100585.81;;;1.41;79.82
31717;BME280;18301;51.076;17.046;2023-02-03T04:14:33;100584.22;;;1.35;79.71
31717;BME280;18301;51.076;17.046;2023-02-03T04:19:35;100574.69;;;1.30;79.87
31717;BME280;18301;51.076;17.046;2023-02-03T04:24:36;100570.69;;;1.43;79.61
31717;BME280;18301;51.076;17.046;2023-02-03T04:29:38;100550.75;;;1.56;79.61
31717;BME280;18301;51.076;17.046;2023-02-03T04:34:39;100550.00;;;1.78;78.65
31717;BME280;18301;51.076;17.046;2023-02-03T04:39:41;100524.31;;;1.77;78.11
31717;BME280;18301;51.076;17.046;2023-02-03T04:44:43;100508.25;;;1.80;77.01
31717;BME280;18301;51.076;17.046;2023-02-03T04:49:44;100511.88;;;1.77;77.16
31717;BME280;18301;51.076;17.046;2023-02-03T04:54:46;100496.94;;;1.98;77.07
31717;BME280;18301;51.076;17.046;2023-02-03T04:59:47;100503.91;;;1.77;77.55
31717;BME280;18301;51.076;17.046;2023-02-03T05:04:49;100488.22;;;1.70;77.43
31717;BME280;18301;51.076;17.046;2023-02-03T05:09:50;100466.00;;;1.71;78.16
31717;BME280;18301;51.076;17.046;2023-02-03T05:14:51;100468.34;;;1.80;78.29
31717;BME280;18301;51.076;17.046;2023-02-03T05:19:53;100473.31;;;1.89;77.92
31717;BME280;18301;51.076;17.046;2023-02-03T05:24:54;100452.97;;;1.63;78.59
31717;BME280;18301;51.076;17.046;2023-02-03T05:29:56;100447.59;;;1.65;78.54
31717;BME280;18301;51.076;17.046;2023-02-03T05:34:57;100438.59;;;1.69;79.05
31717;BME280;18301;51.076;17.046;2023-02-03T05:39:59;100439.03;;;1.56;79.87
31717;BME280;18301;51.076;17.046;2023-02-03T05:45:20;100426.84;;;1.74;79.28
31717;BME280;18301;51.076;17.046;2023-02-03T05:50:22;100425.41;;;1.89;79.44
31717;BME280;18301;51.076;17.046;2023-02-03T05:55:23;100409.44;;;1.66;81.13
31717;BME280;18301;51.076;17.046;2023-02-03T06:00:25;100400.91;;;1.57;82.44
31717;BME280;18301;51.076;17.046;2023-02-03T06:05:28;100379.31;;;1.65;82.64
31717;BME280;18301;51.076;17.046;2023-02-03T06:10:29;100370.81;;;1.55;83.77
31717;BME280;18301;51.076;17.046;2023-02-03T06:15:31;100353.13;;;1.54;83.65
31717;BME280;18301;51.076;17.046;2023-02-03T06:20:32;100342.81;;;1.69;84.33
31717;BME280;18301;51.076;17.046;2023-02-03T06:25:34;100339.13;;;1.73;84.67
31717;BME280;18301;51.076;17.046;2023-02-03T06:30:35;100337.38;;;1.72;85.25
31717;BME280;18301;51.076;17.046;2023-02-03T06:35:37;100317.97;;;1.70;86.42
31717;BME280;18301;51.076;17.046;2023-02-03T06:40:38;100302.13;;;1.67;87.37
31717;BME280;18301;51.076;17.046;2023-02-03T06:45:40;100289.84;;;1.63;89.04
31717;BME280;18301;51.076;17.046;2023-02-03T06:50:42;100272.75;;;1.46;91.50
31717;BME280;18301;51.076;17.046;2023-02-03T06:55:43;100270.91;;;1.48;92.04
31717;BME280;18301;51.076;17.046;2023-02-03T07:00:44;100238.25;;;1.45;92.17
31717;BME280;18301;51.076;17.046;2023-02-03T07:05:46;100226.50;;;1.50;92.90
31717;BME280;18301;51.076;17.046;2023-02-03T07:10:52;100216.97;;;1.45;94.44
31717;BME280;18301;51.076;17.046;2023-02-03T07:15:53;100221.44;;;1.44;94.71
31717;BME280;18301;51.076;17.046;2023-02-03T07:20:55;100210.66;;;1.47;95.16
31717;BME280;18301;51.076;17.046;2023-02-03T07:26:01;100189.97;;;1.55;93.64
31717;BME280;18301;51.076;17.046;2023-02-03T07:31:03;100166.16;;;1.52;94.40
31717;BME280;18301;51.076;17.046;2023-02-03T07:36:06;100163.19;;;1.38;96.70
31717;BME280;18301;51.076;17.046;2023-02-03T07:41:08;100156.13;;;1.37;97.13
31717;BME280;18301;51.076;17.046;2023-02-03T07:46:09;100136.16;;;1.27;97.78
31717;BME280;18301;51.076;17.046;2023-02-03T07:51:11;100122.69;;;1.31;97.26
31717;BME280;18301;51.076;17.046;2023-02-03T07:56:12;100095.94;;;1.36;97.83
31717;BME280;18301;51.076;17.046;2023-02-03T08:01:15;100078.66;;;1.46;97.95
31717;BME280;18301;51.076;17.046;2023-02-03T08:06:17;100068.84;;;1.48;97.02
31717;BME280;18301;51.076;17.046;2023-02-03T08:11:18;100057.78;;;1.37;97.70
31717;BME280;18301;51.076;17.046;2023-02-03T08:16:20;100038.78;;;1.46;98.29
31717;BME280;18301;51.076;17.046;2023-02-03T08:21:21;100033.03;;;1.35;98.65
31717;BME280;18301;51.076;17.046;2023-02-03T08:26:23;100013.44;;;1.37;99.72
31717;BME280;18301;51.076;17.046;2023-02-03T08:31:24;100000.22;;;1.36;99.43
31717;BME280;18301;51.076;17.046;2023-02-03T08:36:26;99989.31;;;1.42;99.73
31717;BME280;18301;51.076;17.046;2023-02-03T08:41:42;99978.34;;;1.70;97.79
31717;BME280;18301;51.076;17.046;2023-02-03T08:46:47;99962.56;;;1.86;96.50
31717;BME280;18301;51.076;17.046;2023-02-03T08:51:49;99947.91;;;1.96;95.62
31717;BME280;18301;51.076;17.046;2023-02-03T08:56:51;99945.75;;;2.04;95.48
31717;BME280;18301;51.076;17.046;2023-02-03T09:01:53;99929.59;;;2.28;94.39
31717;BME280;18301;51.076;17.046;2023-02-03T09:06:55;99917.91;;;2.49;94.18
31717;BME280;18301;51.076;17.046;2023-02-03T09:11:57;99913.19;;;2.37;93.89
31717;BME280;18301;51.076;17.046;2023-02-03T09:17:03;99899.00;;;2.18;94.75
31717;BME280;18301;51.076;17.046;2023-02-03T09:22:06;99886.88;;;2.48;93.70
31717;BME280;18301;51.076;17.046;2023-02-03T09:27:07;99880.94;;;2.61;93.56
31717;BME280;18301;51.076;17.046;2023-02-03T09:32:09;99863.16;;;2.61;93.44
31717;BME280;18301;51.076;17.046;2023-02-03T09:37:11;99858.88;;;2.59;94.12
31717;BME280;18301;51.076;17.046;2023-02-03T09:47:52;99816.88;;;2.64;95.10
31717;BME280;18301;51.076;17.046;2023-02-03T09:52:56;99804.97;;;2.88;93.86
31717;BME280;18301;51.076;17.046;2023-02-03T09:58:10;99801.91;;;2.96;94.21
31717;BME280;18301;51.076;17.046;2023-02-03T10:09:14;99768.53;;;3.22;93.72
31717;BME280;18301;51.076;17.046;2023-02-03T10:14:34;99746.06;;;3.26;94.05
31717;BME280;18301;51.076;17.046;2023-02-03T10:19:57;99729.91;;;3.29;93.56
31717;BME280;18301;51.076;17.046;2023-02-03T10:25:16;99709.56;;;3.11;95.03
31717;BME280;18301;51.076;17.046;2023-02-03T10:30:22;99687.00;;;3.18;95.19
31717;BME280;18301;51.076;17.046;2023-02-03T10:35:32;99671.59;;;3.23;94.73
31717;BME280;18301;51.076;17.046;2023-02-03T10:40:36;99661.59;;;3.11;97.20
31717;BME280;18301;51.076;17.046;2023-02-03T10:45:38;99631.25;;;3.13;96.46
31717;BME280;18301;51.076;17.046;2023-02-03T10:50:44;99611.22;;;3.22;97.03
31717;BME280;18301;51.076;17.046;2023-02-03T10:55:50;99582.41;;;3.13;98.10
31717;BME280;18301;51.076;17.046;2023-02-03T11:01:12;99586.97;;;3.11;99.70
31717;BME280;18301;51.076;17.046;2023-02-03T11:06:16;99572.09;;;3.07;100.00
31717;BME280;18301;51.076;17.046;2023-02-03T11:11:26;99554.28;;;3.23;98.48
31717;BME280;18301;51.076;17.046;2023-02-03T11:16:29;99536.56;;;3.22;99.85
31717;BME280;18301;51.076;17.046;2023-02-03T11:21:40;99509.81;;;3.54;97.55
31717;BME280;18301;51.076;17.046;2023-02-03T11:31:51;99476.41;;;3.62;96.68
31717;BME280;18301;51.076;17.046;2023-02-03T11:36:53;99466.84;;;3.88;96.23
31717;BME280;18301;51.076;17.046;2023-02-03T11:41:55;99440.72;;;4.08;94.91
31717;BME280;18301;51.076;17.046;2023-02-03T11:47:01;99427.75;;;4.16;94.66
31717;BME280;18301;51.076;17.046;2023-02-03T11:57:27;99422.41;;;4.16;95.55
31717;BME280;18301;51.076;17.046;2023-02-03T12:08:07;99380.03;;;4.38;95.60
31717;BME280;18301;51.076;17.046;2023-02-03T12:13:23;99376.66;;;4.49;94.91
31717;BME280;18301;51.076;17.046;2023-02-03T12:24:36;99367.78;;;4.76;94.89
31717;BME280;18301;51.076;17.046;2023-02-03T12:29:46;99337.47;;;4.90;95.30
31717;BME280;18301;51.076;17.046;2023-02-03T12:34:58;99320.81;;;5.12;95.45
31717;BME280;18301;51.076;17.046;2023-02-03T12:40:08;99303.94;;;5.37;95.26
31717;BME280;18301;51.076;17.046;2023-02-03T12:45:18;99311.41;;;5.57;95.00
31717;BME280;18301;51.076;17.046;2023-02-03T12:50:31;99278.34;;;5.58;95.99
31717;BME280;18301;51.076;17.046;2023-02-03T12:55:41;99287.31;;;5.57;97.33
31717;BME280;18301;51.076;17.046;2023-02-03T13:00:47;99253.13;;;5.86;95.78
31717;BME280;18301;51.076;17.046;2023-02-03T13:06:13;99262.91;;;6.11;95.04
31717;BME280;18301;51.076;17.046;2023-02-03T13:11:22;99266.50;;;5.99;94.88
31717;BME280;18301;51.076;17.046;2023-02-03T13:16:32;99258.22;;;6.02;96.23
31717;BME280;18301;51.076;17.046;2023-02-03T13:21:36;99236.81;;;5.89;99.90
31717;BME280;18301;51.076;17.046;2023-02-03T13:27:02;99255.34;;;6.05;98.51
31717;BME280;18301;51.076;17.046;2023-02-03T13:43:17;99251.47;;;6.33;100.00
31717;BME280;18301;51.076;17.046;2023-02-03T13:48:42;99272.59;;;6.49;100.00
31717;BME280;18301;51.076;17.046;2023-02-03T13:53:46;99259.78;;;6.41;100.00
31717;BME280;18301;51.076;17.046;2023-02-03T13:59:01;99266.44;;;6.60;99.34
31717;BME280;18301;51.076;17.046;2023-02-03T14:04:51;99296.69;;;6.38;100.00
31717;BME280;18301;51.076;17.046;2023-02-03T14:24:54;99315.25;;;6.52;96.49
31717;BME280;18301;51.076;17.046;2023-02-03T14:30:07;99321.88;;;6.59;95.81
31717;BME280;18301;51.076;17.046;2023-02-03T14:35:18;99314.78;;;6.58;96.11
31717;BME280;18301;51.076;17.046;2023-02-03T14:40:45;99320.97;;;6.72;93.82
31717;BME280;18301;51.076;17.046;2023-02-03T14:56:42;99351.00;;;6.40;92.77
31717;BME280;18301;51.076;17.046;2023-02-03T15:07:06;99365.59;;;6.36;91.63
31717;BME280;18301;51.076;17.046;2023-02-03T15:12:19;99360.78;;;6.41;92.01
31717;BME280;18301;51.076;17.046;2023-02-03T15:17:25;99361.66;;;6.29;91.70
31717;BME280;18301;51.076;17.046;2023-02-03T15:22:28;99357.06;;;6.55;89.89
31717;BME280;18301;51.076;17.046;2023-02-03T15:27:31;99370.91;;;6.49;89.45
31717;BME280;18301;51.076;17.046;2023-02-03T15:32:38;99358.72;;;6.44;88.61
31717;BME280;18301;51.076;17.046;2023-02-03T15:48:03;99383.97;;;6.16;90.43
31717;BME280;18301;51.076;17.046;2023-02-03T15:53:16;99384.78;;;6.30;89.60
31717;BME280;18301;51.076;17.046;2023-02-03T15:58:26;99390.97;;;6.43;88.91
31717;BME280;18301;51.076;17.046;2023-02-03T16:03:39;99398.72;;;6.35;89.27
31717;BME280;18301;51.076;17.046;2023-02-03T16:08:47;99404.00;;;6.23;89.66
31717;BME280;18301;51.076;17.046;2023-02-03T16:13:49;99394.41;;;6.45;88.04
31717;BME280;18301;51.076;17.046;2023-02-03T16:18:54;99406.41;;;6.39;87.77
31717;BME280;18301;51.076;17.046;2023-02-03T16:23:57;99399.31;;;6.51;86.79
31717;BME280;18301;51.076;17.046;2023-02-03T16:34:22;99428.22;;;6.09;86.87
31717;BME280;18301;51.076;17.046;2023-02-03T16:39:42;99449.75;;;6.20;86.21
31717;BME280;18301;51.076;17.046;2023-02-03T16:45:04;99479.53;;;6.29;84.56
31717;BME280;18301;51.076;17.046;2023-02-03T16:50:33;99467.13;;;6.02;85.16
31717;BME280;18301;51.076;17.046;2023-02-03T16:55:55;99484.25;;;6.12;84.87
31717;BME280;18301;51.076;17.046;2023-02-03T17:00:59;99487.47;;;6.17;83.88
31717;BME280;18301;51.076;17.046;2023-02-03T17:06:03;99494.31;;;6.21;83.79
31717;BME280;18301;51.076;17.046;2023-02-03T17:11:13;99519.00;;;5.74;84.28
31717;BME280;18301;51.076;17.046;2023-02-03T17:16:21;99516.63;;;5.69;83.94
31717;BME280;18301;51.076;17.046;2023-02-03T17:21:25;99511.63;;;5.77;83.40
31717;BME280;18301;51.076;17.046;2023-02-03T17:26:28;99521.91;;;5.84;83.63
31717;BME280;18301;51.076;17.046;2023-02-03T17:31:30;99510.94;;;6.01;82.60
31717;BME280;18301;51.076;17.046;2023-02-03T17:36:31;99506.53;;;6.00;82.06
31717;BME280;18301;51.076;17.046;2023-02-03T17:41:33;99508.78;;;6.06;81.48
31717;BME280;18301;51.076;17.046;2023-02-03T17:46:52;99515.53;;;5.99;82.33
31717;BME280;18301;51.076;17.046;2023-02-03T17:52:11;99526.06;;;5.75;83.27
31717;BME280;18301;51.076;17.046;2023-02-03T17:57:31;99526.25;;;5.99;82.34
31717;BME280;18301;51.076;17.046;2023-02-03T18:02:34;99527.78;;;6.16;82.57
31717;BME280;18301;51.076;17.046;2023-02-03T18:07:36;99537.31;;;5.67;84.80
31717;BME280;18301;51.076;17.046;2023-02-03T18:12:37;99525.75;;;5.67;85.44
31717;BME280;18301;51.076;17.046;2023-02-03T18:17:39;99532.47;;;5.72;85.40
31717;BME280;18301;51.076;17.046;2023-02-03T18:22:42;99532.97;;;5.52;86.58
31717;BME280;18301;51.076;17.046;2023-02-03T18:27:44;99530.22;;;5.66;86.34
31717;BME280;18301;51.076;17.046;2023-02-03T18:32:49;99530.56;;;5.74;85.70
31717;BME280;18301;51.076;17.046;2023-02-03T18:37:51;99527.69;;;5.77;85.45
31717;BME280;18301;51.076;17.046;2023-02-03T18:42:53;99520.44;;;5.92;85.07
31717;BME280;18301;51.076;17.046;2023-02-03T18:47:56;99526.06;;;5.35;87.44
31717;BME280;18301;51.076;17.046;2023-02-03T18:52:57;99527.88;;;5.74;86.27
31717;BME280;18301;51.076;17.046;2023-02-03T18:57:59;99543.31;;;5.84;85.45
31717;BME280;18301;51.076;17.046;2023-02-03T19:03:00;99566.03;;;5.91;85.08
31717;BME280;18301;51.076;17.046;2023-02-03T19:08:02;99552.41;;;6.08;84.28
31717;BME280;18301;51.076;17.046;2023-02-03T19:13:03;99552.34;;;5.83;85.41
31717;BME280;18301;51.076;17.046;2023-02-03T19:18:05;99542.09;;;6.02;84.60
31717;BME280;18301;51.076;17.046;2023-02-03T19:23:06;99555.44;;;5.89;85.40
31717;BME280;18301;51.076;17.046;2023-02-03T19:28:10;99548.69;;;5.84;85.99
31717;BME280;18301;51.076;17.046;2023-02-03T19:33:20;99548.66;;;5.98;85.06
31717;BME280;18301;51.076;17.046;2023-02-03T19:38:21;99540.91;;;5.93;85.64
31717;BME280;18301;51.076;17.046;2023-02-03T19:43:23;99539.53;;;6.01;85.42
31717;BME280;18301;51.076;17.046;2023-02-03T19:48:25;99530.47;;;6.16;84.52
31717;BME280;18301;51.076;17.046;2023-02-03T19:53:26;99533.84;;;6.31;82.97
31717;BME280;18301;51.076;17.046;2023-02-03T19:58:28;99542.09;;;6.02;85.26
31717;BME280;18301;51.076;17.046;2023-02-03T20:03:30;99525.22;;;5.74;87.39
31717;BME280;18301;51.076;17.046;2023-02-03T20:08:32;99544.69;;;6.04;86.20
31717;BME280;18301;51.076;17.046;2023-02-03T20:13:34;99531.59;;;5.99;87.12
31717;BME280;18301;51.076;17.046;2023-02-03T20:18:35;99565.88;;;5.94;87.22
31717;BME280;18301;51.076;17.046;2023-02-03T20:23:37;99546.81;;;5.98;87.23
31717;BME280;18301;51.076;17.046;2023-02-03T20:28:38;99540.19;;;6.04;87.00
31717;BME280;18301;51.076;17.046;2023-02-03T20:33:40;99550.50;;;5.83;88.10
31717;BME280;18301;51.076;17.046;2023-02-03T20:38:41;99563.50;;;5.62;89.89
31717;BME280;18301;51.076;17.046;2023-02-03T20:43:43;99558.59;;;5.96;88.48
31717;BME280;18301;51.076;17.046;2023-02-03T20:48:45;99524.16;;;5.77;89.82
31717;BME280;18301;51.076;17.046;2023-02-03T20:53:47;99541.84;;;5.80;89.74
31717;BME280;18301;51.076;17.046;2023-02-03T20:58:50;99547.25;;;5.65;91.00
31717;BME280;18301;51.076;17.046;2023-02-03T21:03:51;99547.38;;;5.64;91.16
31717;BME280;18301;51.076;17.046;2023-02-03T21:09:14;99525.75;;;5.67;90.48
31717;BME280;18301;51.076;17.046;2023-02-03T21:14:19;99532.75;;;5.82;90.46
31717;BME280;18301;51.076;17.046;2023-02-03T21:19:31;99534.28;;;5.59;91.12
31717;BME280;18301;51.076;17.046;2023-02-03T21:24:33;99529.97;;;5.57;91.51
31717;BME280;18301;51.076;17.046;2023-02-03T21:29:38;99523.41;;;5.48;92.33
31717;BME280;18301;51.076;17.046;2023-02-03T21:34:43;99525.78;;;5.80;91.61
31717;BME280;18301;51.076;17.046;2023-02-03T21:39:46;99510.41;;;5.96;90.29
31717;BME280;18301;51.076;17.046;2023-02-03T21:44:47;99520.22;;;5.83;90.08
31717;BME280;18301;51.076;17.046;2023-02-03T21:49:49;99521.31;;;5.93;91.26
31717;BME280;18301;51.076;17.046;2023-02-03T21:54:50;99518.47;;;5.82;91.92
31717;BME280;18301;51.076;17.046;2023-02-03T21:59:52;99526.16;;;5.61;92.58
31717;BME280;18301;51.076;17.046;2023-02-03T22:04:53;99514.22;;;5.92;91.30
31717;BME280;18301;51.076;17.046;2023-02-03T22:09:55;99522.06;;;5.55;92.67
31717;BME280;18301;51.076;17.046;2023-02-03T22:14:56;99526.41;;;5.83;91.44
31717;BME280;18301;51.076;17.046;2023-02-03T22:19:58;99530.00;;;5.69;91.38
31717;BME280;18301;51.076;17.046;2023-02-03T22:24:59;99513.59;;;5.88;91.72
31717;BME280;18301;51.076;17.046;2023-02-03T22:30:01;99506.91;;;5.81;92.58
31717;BME280;18301;51.076;17.046;2023-02-03T22:35:02;99522.13;;;5.81;90.85
31717;BME280;18301;51.076;17.046;2023-02-03T22:40:04;99525.88;;;5.91;90.62
31717;BME280;18301;51.076;17.046;2023-02-03T22:45:06;99522.84;;;6.10;90.19
31717;BME280;18301;51.076;17.046;2023-02-03T22:50:09;99510.59;;;5.93;89.87
31717;BME280;18301;51.076;17.046;2023-02-03T22:55:12;99502.16;;;6.12;89.30
31717;BME280;18301;51.076;17.046;2023-02-03T23:00:18;99508.25;;;6.01;89.60
31717;BME280;18301;51.076;17.046;2023-02-03T23:05:21;99520.13;;;5.97;89.60
31717;BME280;18301;51.076;17.046;2023-02-03T23:10:24;99519.84;;;6.02;90.40
31717;BME280;18301;51.076;17.046;2023-02-03T23:15:26;99507.63;;;5.58;93.73
31717;BME280;18301;51.076;17.046;2023-02-03T23:20:28;99519.84;;;5.74;91.86
31717;BME280;18301;51.076;17.046;2023-02-03T23:25:30;99509.22;;;5.60;94.14
31717;BME280;18301;51.076;17.046;2023-02-03T23:30:32;99515.25;;;5.64;93.46
31717;BME280;18301;51.076;17.046;2023-02-03T23:35:34;99509.44;;;5.57;93.65
31717;BME280;18301;51.076;17.046;2023-02-03T23:40:47;99506.47;;;5.74;91.82
31717;BME280;18301;51.076;17.046;2023-02-03T23:45:49;99526.19;;;5.73;90.05
31717;BME280;18301;51.076;17.046;2023-02-03T23:50:50;99546.06;;;5.69;88.78
31717;BME280;18301;51.076;17.046;2023-02-03T23:55:52;99547.09;;;5.54;88.38
